Time;durP1;ratioP1;P1;durP2;ratioP2;P2;SDS_P1;SDS_P2;PMS_P1;PMS_P2;Temp;Humidity;BMP_temperature;BMP_pressure;BME280_temperature;BME280_humidity;BME280_pressure;Samples;Min_cycle;Max_cycle;Signal;HPM_P1;HPM_P2
2021/03/07 00:00:14;;;;;;;10.20;7.18;;;;;;;;;;5025091;28;20180;-47
2021/03/07 00:02:41;;;;;;;7.78;6.97;;;;;;;;;;5034090;28;20266;-47
2021/03/07 00:05:07;;;;;;;8.70;6.78;;;;;;;;;;5028460;28;20196;-47
2021/03/07 00:07:34;;;;;;;9.05;6.85;;;;;;;;;;5030913;28;20222;-47
2021/03/07 00:10:00;;;;;;;7.50;6.70;;;;;;;;;;5029615;28;20208;-47
2021/03/07 00:12:26;;;;;;;8.35;6.80;;;;;;;;;;5030793;28;20223;-47
2021/03/07 00:14:52;;;;;;;6.80;6.00;;;;;;;;;;5023902;28;20263;-47
2021/03/07 00:17:18;;;;;;;7.75;6.93;;;;;;;;;;5022280;28;20271;-47
2021/03/07 00:19:44;;;;;;;8.23;6.72;;;;;;;;;;5034096;28;20183;-47
2021/03/07 00:22:10;;;;;;;7.50;6.70;;;;;;;;;;5034033;28;20494;-46
2021/03/07 00:24:36;;;;;;;8.00;6.88;;;;;;;;;;5022020;28;20184;-46
2021/03/07 00:27:02;;;;;;;7.45;6.20;;;;;;;;;;5031493;28;20265;-46
2021/03/07 00:29:28;;;;;;;7.40;6.25;;;;;;;;;;5029892;28;20596;-46
2021/03/07 00:31:54;;;;;;;7.53;6.30;;;;;;;;;;5027041;28;20220;-46
2021/03/07 00:34:20;;;;;;;7.07;5.82;;;;;;;;;;5013747;28;20199;-47
2021/03/07 00:36:46;;;;;;;7.13;6.00;;;;;;;;;;5029774;28;20203;-47
2021/03/07 00:39:13;;;;;;;7.32;6.00;;;;;;;;;;5026389;28;20455;-46
2021/03/07 00:41:39;;;;;;;6.90;6.18;;;;;;;;;;5014575;28;20234;-46
2021/03/07 00:44:06;;;;;;;6.50;5.63;;;;;;;;;;5025588;28;20184;-46
2021/03/07 00:46:32;;;;;;;6.07;5.22;;;;;;;;;;5016442;28;20195;-46
2021/03/07 00:48:58;;;;;;;7.78;5.60;;;;;;;;;;5027201;28;20192;-46
2021/03/07 00:51:24;;;;;;;6.15;5.50;;;;;;;;;;5014372;28;20188;-46
2021/03/07 00:53:51;;;;;;;7.25;5.97;;;;;;;;;;5019886;28;20195;-46
2021/03/07 00:56:16;;;;;;;6.00;5.07;;;;;;;;;;5017976;28;20299;-47
2021/03/07 00:58:42;;;;;;;7.00;5.85;;;;;;;;;;5029115;28;20263;-47
2021/03/07 01:01:08;;;;;;;6.85;5.70;;;;;;;;;;5026750;28;20206;-47
2021/03/07 01:03:35;;;;;;;6.43;5.72;;;;;;;;;;5031558;28;20184;-47
2021/03/07 01:06:01;;;;;;;5.68;4.97;;;;;;;;;;5017929;28;20203;-47
2021/03/07 01:08:27;;;;;;;6.15;5.47;;;;;;;;;;5029179;28;20215;-47
2021/03/07 01:10:53;;;;;;;5.68;5.10;;;;;;;;;;5036982;28;20196;-47
2021/03/07 01:13:20;;;;;;;5.68;5.10;;;;;;;;;;5027184;28;20197;-46
2021/03/07 01:15:46;;;;;;;6.10;5.47;;;;;;;;;;5028189;28;20212;-47
2021/03/07 01:18:12;;;;;;;6.68;5.65;;;;;;;;;;5031658;28;20250;-47
2021/03/07 01:20:40;;;;;;;6.82;5.30;;;;;;;;;;5037435;28;20172;-47
2021/03/07 01:23:06;;;;;;;5.38;4.82;;;;;;;;;;5036236;28;20501;-47
2021/03/07 01:25:33;;;;;;;5.88;4.90;;;;;;;;;;5025167;28;20568;-47
2021/03/07 01:27:59;;;;;;;5.20;4.70;;;;;;;;;;5021971;28;20192;-47
2021/03/07 01:30:26;;;;;;;5.82;5.05;;;;;;;;;;5017191;28;20173;-47
2021/03/07 01:32:54;;;;;;;6.53;4.88;;;;;;;;;;5030359;28;20601;-46
2021/03/07 01:35:20;;;;;;;5.85;4.75;;;;;;;;;;5035999;28;20207;-47
2021/03/07 01:37:46;;;;;;;5.60;4.57;;;;;;;;;;5034738;28;20180;-47
2021/03/07 01:40:14;;;;;;;5.72;5.15;;;;;;;;;;5029422;28;20273;-47
2021/03/07 01:42:50;;;;;;;6.13;4.60;;;;;;;;;;5033958;28;20184;-47
2021/03/07 01:45:23;;;;;;;4.93;4.30;;;;;;;;;;5016387;28;20227;-47
2021/03/07 01:47:50;;;;;;;4.97;4.47;;;;;;;;;;5016892;28;20494;-47
2021/03/07 01:50:18;;;;;;;4.78;4.32;;;;;;;;;;5019174;28;20185;-47
2021/03/07 01:52:44;;;;;;;5.10;4.22;;;;;;;;;;5032073;28;20230;-47
2021/03/07 01:55:10;;;;;;;5.07;4.40;;;;;;;;;;5032085;28;20257;-47
2021/03/07 01:57:39;;;;;;;5.60;5.00;;;;;;;;;;5034287;28;20194;-47
2021/03/07 02:00:08;;;;;;;4.93;4.22;;;;;;;;;;5020054;28;20184;-46
2021/03/07 02:02:34;;;;;;;5.32;4.72;;;;;;;;;;5025191;28;20203;-46
2021/03/07 02:05:00;;;;;;;5.18;4.50;;;;;;;;;;5034067;28;20271;-47
2021/03/07 02:07:26;;;;;;;5.22;4.45;;;;;;;;;;5032409;28;20192;-47
2021/03/07 02:09:52;;;;;;;4.85;4.28;;;;;;;;;;5035083;28;20514;-47
2021/03/07 02:12:21;;;;;;;5.45;4.43;;;;;;;;;;5023839;28;20546;-47
2021/03/07 02:14:49;;;;;;;4.53;4.07;;;;;;;;;;5027195;28;20176;-47
2021/03/07 02:17:16;;;;;;;5.20;4.20;;;;;;;;;;5031358;28;20191;-47
2021/03/07 02:19:42;;;;;;;5.07;4.55;;;;;;;;;;5016840;28;20176;-47
2021/03/07 02:22:12;;;;;;;4.30;3.80;;;;;;;;;;5017040;28;20615;-47
2021/03/07 02:24:38;;;;;;;4.82;4.38;;;;;;;;;;5020069;28;20184;-47
2021/03/07 02:27:04;;;;;;;4.85;3.97;;;;;;;;;;5033789;28;20192;-47
2021/03/07 02:29:30;;;;;;;5.38;4.38;;;;;;;;;;5016138;28;20208;-47
2021/03/07 02:31:57;;;;;;;4.75;4.15;;;;;;;;;;5030750;28;20269;-47
2021/03/07 02:34:32;;;;;;;5.40;4.40;;;;;;;;;;5034980;28;20190;-47
2021/03/07 02:37:01;;;;;;;4.72;3.88;;;;;;;;;;5029331;28;20467;-47
2021/03/07 02:39:29;;;;;;;4.53;3.80;;;;;;;;;;5030457;28;20231;-47
2021/03/07 02:41:58;;;;;;;4.22;3.33;;;;;;;;;;5016136;28;20748;-47
2021/03/07 02:44:26;;;;;;;4.38;3.80;;;;;;;;;;5030741;28;20799;-47
2021/03/07 02:46:52;;;;;;;5.18;4.22;;;;;;;;;;5035952;28;20192;-47
2021/03/07 02:49:19;;;;;;;3.97;3.55;;;;;;;;;;5033918;28;20231;-47
2021/03/07 02:51:46;;;;;;;4.40;4.00;;;;;;;;;;5033562;28;20263;-47
2021/03/07 02:54:13;;;;;;;3.92;3.53;;;;;;;;;;5032336;28;20613;-47
2021/03/07 02:56:43;;;;;;;3.97;3.63;;;;;;;;;;5026901;28;20212;-46
2021/03/07 02:59:11;;;;;;;4.07;3.67;;;;;;;;;;5018838;28;20188;-46
2021/03/07 03:01:38;;;;;;;4.40;3.78;;;;;;;;;;5017280;28;20203;-46
2021/03/07 03:04:04;;;;;;;4.70;4.10;;;;;;;;;;5015051;28;20626;-46
2021/03/07 03:06:30;;;;;;;3.50;3.20;;;;;;;;;;5016505;28;20176;-46
2021/03/07 03:08:59;;;;;;;4.07;3.45;;;;;;;;;;5035289;28;20245;-47
2021/03/07 03:11:27;;;;;;;4.90;3.50;;;;;;;;;;5032765;28;20180;-46
2021/03/07 03:13:53;;;;;;;3.90;3.35;;;;;;;;;;5028678;28;20521;-46
2021/03/07 03:16:22;;;;;;;4.35;3.58;;;;;;;;;;5034343;28;20203;-46
2021/03/07 03:18:49;;;;;;;4.00;3.60;;;;;;;;;;5015135;28;20227;-46
2021/03/07 03:21:15;;;;;;;3.80;3.00;;;;;;;;;;5031453;28;20183;-46
2021/03/07 03:23:41;;;;;;;4.63;3.60;;;;;;;;;;5030946;28;20551;-47
2021/03/07 03:26:11;;;;;;;3.30;3.00;;;;;;;;;;5026813;28;20276;-47
2021/03/07 03:28:40;;;;;;;3.35;3.03;;;;;;;;;;5025439;28;20187;-47
2021/03/07 03:31:06;;;;;;;3.25;2.95;;;;;;;;;;5016257;28;20184;-46
2021/03/07 03:33:32;;;;;;;3.42;3.13;;;;;;;;;;5031918;28;20245;-46
2021/03/07 03:35:58;;;;;;;4.05;2.97;;;;;;;;;;5024339;28;20211;-46
2021/03/07 03:38:27;;;;;;;3.55;2.83;;;;;;;;;;5024742;28;20176;-46
2021/03/07 03:40:54;;;;;;;3.50;3.20;;;;;;;;;;5034702;28;20172;-46
2021/03/07 03:43:21;;;;;;;3.05;2.80;;;;;;;;;;5027239;28;20243;-47
2021/03/07 03:45:48;;;;;;;3.33;3.03;;;;;;;;;;5018664;28;20184;-47
2021/03/07 03:48:19;;;;;;;3.30;3.00;;;;;;;;;;5016851;28;20259;-46
2021/03/07 03:50:46;;;;;;;3.40;2.92;;;;;;;;;;5020854;28;20187;-46
2021/03/07 03:53:13;;;;;;;3.55;2.88;;;;;;;;;;5030961;28;20585;-46
2021/03/07 03:55:41;;;;;;;3.28;2.97;;;;;;;;;;5028820;28;20247;-46
2021/03/07 03:58:08;;;;;;;3.08;2.53;;;;;;;;;;5019358;28;20179;-46
2021/03/07 04:00:37;;;;;;;4.10;3.28;;;;;;;;;;5028270;28;20212;-47
2021/03/07 04:03:04;;;;;;;2.78;2.47;;;;;;;;;;5027922;28;20171;-47
2021/03/07 04:05:30;;;;;;;2.72;2.53;;;;;;;;;;5032992;28;20202;-46
2021/03/07 04:07:57;;;;;;;2.78;2.40;;;;;;;;;;5034580;28;20215;-46
2021/03/07 04:10:23;;;;;;;3.33;2.80;;;;;;;;;;5031006;28;20200;-46
2021/03/07 04:12:49;;;;;;;3.13;2.83;;;;;;;;;;5022686;28;20195;-46
2021/03/07 04:15:17;;;;;;;3.05;2.75;;;;;;;;;;5031475;28;20204;-46
2021/03/07 04:17:44;;;;;;;3.47;2.92;;;;;;;;;;5027281;28;20188;-47
2021/03/07 04:20:10;;;;;;;3.00;2.50;;;;;;;;;;5029781;28;20195;-46
2021/03/07 04:22:36;;;;;;;3.10;2.80;;;;;;;;;;5023000;28;20195;-46
2021/03/07 04:25:03;;;;;;;3.45;2.42;;;;;;;;;;5033772;28;20184;-46
2021/03/07 04:27:29;;;;;;;3.30;2.90;;;;;;;;;;5015667;28;20185;-46
2021/03/07 04:29:56;;;;;;;2.40;2.20;;;;;;;;;;5024424;28;20198;-46
2021/03/07 04:32:22;;;;;;;2.85;2.50;;;;;;;;;;5023425;28;20188;-46
2021/03/07 04:34:48;;;;;;;2.58;2.38;;;;;;;;;;5014151;28;20191;-46
2021/03/07 04:37:14;;;;;;;3.15;2.40;;;;;;;;;;5020087;28;20200;-46
2021/03/07 04:39:40;;;;;;;2.55;2.35;;;;;;;;;;5034115;28;20176;-46
2021/03/07 04:42:07;;;;;;;2.72;2.47;;;;;;;;;;5027833;28;20188;-46
2021/03/07 04:44:33;;;;;;;2.55;2.35;;;;;;;;;;5028975;28;20183;-46
2021/03/07 04:47:00;;;;;;;2.60;2.40;;;;;;;;;;5033727;28;20176;-46
2021/03/07 04:49:26;;;;;;;2.65;2.40;;;;;;;;;;5015533;28;20216;-46
2021/03/07 04:51:52;;;;;;;2.47;2.28;;;;;;;;;;5015899;28;20239;-46
2021/03/07 04:54:18;;;;;;;2.38;2.17;;;;;;;;;;5023419;28;20191;-46
2021/03/07 04:56:44;;;;;;;2.63;2.17;;;;;;;;;;5026497;28;20211;-47
2021/03/07 04:59:10;;;;;;;2.38;2.10;;;;;;;;;;5028598;28;20183;-47
2021/03/07 05:01:36;;;;;;;2.70;2.15;;;;;;;;;;5024752;28;20184;-46
2021/03/07 05:04:03;;;;;;;3.30;2.25;;;;;;;;;;5014091;28;20260;-46
2021/03/07 05:06:29;;;;;;;2.58;2.35;;;;;;;;;;5017466;28;20224;-46
2021/03/07 05:08:56;;;;;;;3.22;2.55;;;;;;;;;;5028008;28;20184;-46
2021/03/07 05:11:22;;;;;;;2.47;2.28;;;;;;;;;;5031313;28;20579;-46
2021/03/07 05:13:48;;;;;;;2.47;2.10;;;;;;;;;;5017213;28;20211;-46
2021/03/07 05:16:16;;;;;;;2.53;2.33;;;;;;;;;;5030786;28;20249;-46
2021/03/07 05:18:43;;;;;;;2.40;1.90;;;;;;;;;;5014503;28;20196;-47
2021/03/07 05:21:09;;;;;;;2.47;2.28;;;;;;;;;;5014233;28;20181;-46
2021/03/07 05:23:35;;;;;;;2.17;1.95;;;;;;;;;;5032012;28;20187;-46
2021/03/07 05:26:01;;;;;;;2.58;2.28;;;;;;;;;;5026775;28;20181;-47
2021/03/07 05:28:27;;;;;;;2.30;2.10;;;;;;;;;;5023253;28;20262;-46
2021/03/07 05:30:53;;;;;;;2.40;2.20;;;;;;;;;;5020231;28;20195;-46
2021/03/07 05:33:19;;;;;;;2.00;1.80;;;;;;;;;;5013957;28;20192;-46
2021/03/07 05:35:45;;;;;;;2.35;2.15;;;;;;;;;;5016907;28;20208;-46
2021/03/07 05:38:11;;;;;;;2.38;2.17;;;;;;;;;;5033278;28;20180;-46
2021/03/07 05:40:37;;;;;;;2.00;1.90;;;;;;;;;;5033518;28;20194;-46
2021/03/07 05:43:07;;;;;;;2.42;2.20;;;;;;;;;;5029401;28;20176;-46
2021/03/07 05:45:33;;;;;;;2.35;2.10;;;;;;;;;;5016314;28;20188;-46
2021/03/07 05:47:59;;;;;;;2.30;2.10;;;;;;;;;;5017481;28;20188;-47
2021/03/07 05:50:26;;;;;;;2.15;1.95;;;;;;;;;;5017014;28;20177;-47
2021/03/07 05:52:53;;;;;;;3.17;1.83;;;;;;;;;;5027925;28;20182;-47
2021/03/07 05:55:19;;;;;;;2.30;2.10;;;;;;;;;;5035971;28;20195;-47
2021/03/07 05:57:47;;;;;;;2.13;1.92;;;;;;;;;;5034920;28;20273;-47
2021/03/07 06:00:14;;;;;;;2.20;2.00;;;;;;;;;;5036710;28;20230;-47
2021/03/07 06:02:40;;;;;;;3.15;2.05;;;;;;;;;;5029685;28;20192;-47
2021/03/07 06:05:06;;;;;;;4.80;1.88;;;;;;;;;;5031766;28;20314;-47
2021/03/07 06:07:32;;;;;;;2.10;1.90;;;;;;;;;;5024338;28;20243;-46
2021/03/07 06:10:11;;;;;;;2.10;1.90;;;;;;;;;;5027839;28;20192;-46
2021/03/07 06:12:37;;;;;;;2.00;1.90;;;;;;;;;;5027158;28;20920;-46
2021/03/07 06:15:04;;;;;;;2.00;1.80;;;;;;;;;;5027000;28;20287;-46
2021/03/07 06:17:40;;;;;;;1.92;1.83;;;;;;;;;;5031550;28;20185;-47
2021/03/07 06:20:08;;;;;;;2.42;1.83;;;;;;;;;;5028834;28;20490;-47
2021/03/07 06:22:35;;;;;;;1.80;1.70;;;;;;;;;;5024194;28;20475;-47
2021/03/07 06:25:03;;;;;;;2.72;1.80;;;;;;;;;;5017751;28;20575;-46
2021/03/07 06:27:29;;;;;;;2.55;2.33;;;;;;;;;;5025320;28;20520;-46
2021/03/07 06:29:59;;;;;;;3.45;2.53;;;;;;;;;;5027246;28;21027;-47
2021/03/07 06:32:27;;;;;;;3.25;2.10;;;;;;;;;;5025096;28;20184;-47
2021/03/07 06:34:53;;;;;;;2.28;2.03;;;;;;;;;;5023473;28;20194;-46
2021/03/07 06:37:19;;;;;;;3.42;2.05;;;;;;;;;;5022860;28;20475;-46
2021/03/07 06:39:46;;;;;;;3.00;2.10;;;;;;;;;;5022832;28;20211;-47
2021/03/07 06:42:12;;;;;;;2.40;1.98;;;;;;;;;;5025255;28;20203;-46
2021/03/07 06:44:39;;;;;;;2.42;2.00;;;;;;;;;;5026256;28;20211;-47
2021/03/07 06:47:09;;;;;;;2.03;1.88;;;;;;;;;;5025869;28;20188;-46
2021/03/07 06:49:35;;;;;;;2.10;2.00;;;;;;;;;;5026309;28;20234;-46
2021/03/07 06:52:11;;;;;;;2.95;2.00;;;;;;;;;;5020547;28;20189;-46
2021/03/07 06:54:37;;;;;;;1.92;1.83;;;;;;;;;;5020332;28;20341;-46
2021/03/07 06:57:04;;;;;;;2.08;1.88;;;;;;;;;;5023715;28;20302;-46
2021/03/07 06:59:30;;;;;;;2.38;2.17;;;;;;;;;;5026267;28;20188;-46
2021/03/07 07:01:57;;;;;;;3.55;1.83;;;;;;;;;;5028533;28;20196;-46
2021/03/07 07:04:24;;;;;;;3.13;1.90;;;;;;;;;;5014786;28;20192;-47
2021/03/07 07:07:02;;;;;;;3.08;1.80;;;;;;;;;;5022454;28;20188;-47
2021/03/07 07:09:28;;;;;;;2.70;2.15;;;;;;;;;;5020018;28;20186;-47
2021/03/07 07:11:54;;;;;;;2.10;1.90;;;;;;;;;;5023435;28;20223;-46
2021/03/07 07:14:46;;;;;;;2.72;2.33;;;;;;;;;;5026795;28;20250;-46
2021/03/07 07:17:15;;;;;;;8.02;2.00;;;;;;;;;;5021214;28;20220;-46
2021/03/07 07:19:42;;;;;;;2.58;1.92;;;;;;;;;;5025965;28;20743;-47
2021/03/07 07:22:09;;;;;;;2.00;1.90;;;;;;;;;;5016507;28;20721;-47
2021/03/07 07:24:35;;;;;;;2.00;1.80;;;;;;;;;;5015064;28;20513;-46
2021/03/07 07:27:02;;;;;;;2.88;2.35;;;;;;;;;;5023034;28;20188;-47
2021/03/07 07:29:28;;;;;;;2.83;2.33;;;;;;;;;;5022483;28;20266;-46
2021/03/07 07:31:55;;;;;;;2.63;2.22;;;;;;;;;;5034582;28;20589;-46
2021/03/07 07:34:26;;;;;;;2.00;1.85;;;;;;;;;;5019869;28;20511;-46
2021/03/07 07:37:11;;;;;;;2.35;1.75;;;;;;;;;;5018265;28;20470;-47
2021/03/07 07:39:38;;;;;;;1.85;1.70;;;;;;;;;;5020912;28;20188;-47
2021/03/07 07:42:21;;;;;;;1.98;1.63;;;;;;;;;;5028975;28;20175;-47
2021/03/07 07:44:48;;;;;;;2.42;2.08;;;;;;;;;;5025458;28;20188;-47
2021/03/07 07:47:14;;;;;;;2.58;1.75;;;;;;;;;;5033081;28;20573;-46
2021/03/07 07:49:50;;;;;;;2.58;2.33;;;;;;;;;;5032586;28;20192;-46
2021/03/07 07:52:22;;;;;;;4.47;1.77;;;;;;;;;;5023973;28;20192;-46
2021/03/07 07:55:03;;;;;;;5.47;2.05;;;;;;;;;;5018291;28;20180;-46
2021/03/07 07:57:40;;;;;;;5.47;2.67;;;;;;;;;;5021430;28;20190;-46
2021/03/07 08:00:08;;;;;;;5.43;2.50;;;;;;;;;;5025031;28;20439;-47
2021/03/07 08:02:43;;;;;;;4.57;2.60;;;;;;;;;;5021217;28;20460;-47
2021/03/07 08:05:22;;;;;;;6.32;3.30;;;;;;;;;;5031511;28;20488;-47
2021/03/07 08:08:00;;;;;;;8.93;3.33;;;;;;;;;;5027705;28;20195;-47
2021/03/07 08:10:39;;;;;;;6.40;3.83;;;;;;;;;;5014422;28;20203;-47
2021/03/07 08:13:05;;;;;;;6.13;4.00;;;;;;;;;;5018734;28;20188;-47
2021/03/07 08:15:31;;;;;;;9.20;4.78;;;;;;;;;;5021666;28;20753;-47
2021/03/07 08:17:59;;;;;;;12.50;4.93;;;;;;;;;;5030820;28;20258;-47
2021/03/07 08:20:45;;;;;;;11.55;5.25;;;;;;;;;;5033741;28;20203;-47
2021/03/07 08:23:12;;;;;;;11.88;4.90;;;;;;;;;;5014183;28;20252;-46
2021/03/07 08:25:48;;;;;;;8.48;4.65;;;;;;;;;;5028431;28;20192;-46
2021/03/07 08:28:26;;;;;;;9.35;4.45;;;;;;;;;;5015065;28;20195;-47
2021/03/07 08:30:52;;;;;;;10.15;4.15;;;;;;;;;;5014191;28;20176;-47
2021/03/07 08:33:22;;;;;;;8.23;4.55;;;;;;;;;;5013940;28;20187;-57
2021/03/07 08:36:07;;;;;;;9.32;4.72;;;;;;;;;;5015036;28;20532;-51
2021/03/07 08:38:33;;;;;;;14.05;5.68;;;;;;;;;;5015191;28;20188;-50
2021/03/07 08:40:59;;;;;;;18.60;6.15;;;;;;;;;;5027804;28;20184;-51
2021/03/07 08:43:25;;;;;;;20.17;7.22;;;;;;;;;;5025456;28;20191;-52
2021/03/07 08:46:05;;;;;;;26.08;7.65;;;;;;;;;;5015337;28;20202;-50
2021/03/07 08:48:31;;;;;;;25.92;8.77;;;;;;;;;;5018349;28;20190;-52
2021/03/07 08:50:58;;;;;;;27.05;8.85;;;;;;;;;;5031147;28;20196;-52
2021/03/07 08:53:25;;;;;;;26.95;9.15;;;;;;;;;;5029524;28;20184;-50
2021/03/07 08:55:51;;;;;;;25.65;8.63;;;;;;;;;;5033022;28;20218;-50
2021/03/07 08:58:18;;;;;;;25.42;8.35;;;;;;;;;;5020798;28;20171;-51
2021/03/07 09:00:45;;;;;;;23.65;8.25;;;;;;;;;;5020111;28;20200;-51
2021/03/07 09:03:15;;;;;;;26.70;8.90;;;;;;;;;;5025848;28;20570;-51
2021/03/07 09:05:41;;;;;;;40.53;11.05;;;;;;;;;;5033178;28;20191;-52
2021/03/07 09:08:08;;;;;;;44.65;13.73;;;;;;;;;;5025265;28;20192;-52
2021/03/07 09:10:34;;;;;;;62.00;17.70;;;;;;;;;;5022580;28;20192;-52
2021/03/07 09:13:29;;;;;;;90.57;23.65;;;;;;;;;;5023550;28;20204;-52
2021/03/07 09:15:56;;;;;;;127.15;32.63;;;;;;;;;;5011715;28;20228;-51
2021/03/07 09:18:23;;;;;;;129.43;33.60;;;;;;;;;;5032960;28;20183;-51
2021/03/07 09:20:54;;;;;;;118.07;32.63;;;;;;;;;;5021463;28;20264;-51
2021/03/07 09:23:27;;;;;;;90.25;25.98;;;;;;;;;;5018587;28;20217;-52
2021/03/07 09:25:54;;;;;;;92.25;27.98;;;;;;;;;;5022285;28;20552;-51
2021/03/07 09:28:33;;;;;;;77.90;24.58;;;;;;;;;;5026728;28;20180;-52
2021/03/07 09:31:00;;;;;;;66.60;20.25;;;;;;;;;;5027832;28;20179;-50
2021/03/07 09:33:27;;;;;;;56.25;19.40;;;;;;;;;;5036928;28;20246;-51
2021/03/07 09:36:13;;;;;;;58.97;18.40;;;;;;;;;;5036605;28;20203;-51
2021/03/07 09:38:40;;;;;;;59.42;18.40;;;;;;;;;;5027628;28;20192;-51
2021/03/07 09:41:06;;;;;;;54.95;17.27;;;;;;;;;;5026076;28;20187;-51
2021/03/07 09:43:32;;;;;;;50.30;18.05;;;;;;;;;;5032904;28;20182;-51
2021/03/07 09:45:58;;;;;;;45.97;16.48;;;;;;;;;;5050851;28;20455;-52
2021/03/07 09:48:30;;;;;;;49.85;17.45;;;;;;;;;;5036191;28;20203;-50
2021/03/07 09:50:57;;;;;;;53.33;16.45;;;;;;;;;;5035000;28;20299;-50
2021/03/07 09:53:23;;;;;;;47.70;15.90;;;;;;;;;;5020300;28;20188;-51
2021/03/07 09:55:49;;;;;;;49.85;15.30;;;;;;;;;;5034428;28;20207;-51
2021/03/07 09:58:15;;;;;;;50.05;16.42;;;;;;;;;;5018762;28;20192;-51
2021/03/07 10:00:47;;;;;;;38.40;14.85;;;;;;;;;;5020905;28;20191;-50
2021/03/07 10:03:24;;;;;;;41.75;14.60;;;;;;;;;;5016700;28;20195;-52
2021/03/07 10:06:06;;;;;;;38.03;13.57;;;;;;;;;;5016418;28;20582;-52
2021/03/07 10:08:33;;;;;;;39.55;15.38;;;;;;;;;;5016562;28;20193;-51
2021/03/07 10:11:09;;;;;;;31.50;12.73;;;;;;;;;;5031903;28;20211;-50
2021/03/07 10:13:35;;;;;;;39.05;13.90;;;;;;;;;;5019262;28;20467;-50
2021/03/07 10:16:02;;;;;;;34.92;12.68;;;;;;;;;;5016204;28;20200;-50
2021/03/07 10:18:28;;;;;;;34.60;12.45;;;;;;;;;;5033242;28;20175;-50
2021/03/07 10:20:57;;;;;;;38.40;13.27;;;;;;;;;;5036310;28;20270;-51
2021/03/07 10:23:33;;;;;;;32.80;13.10;;;;;;;;;;5023376;28;20185;-51
2021/03/07 10:25:59;;;;;;;31.95;12.25;;;;;;;;;;5024982;28;20186;-51
2021/03/07 10:28:26;;;;;;;33.92;11.85;;;;;;;;;;5029966;28;20184;-51
2021/03/07 10:30:53;;;;;;;32.40;12.32;;;;;;;;;;5029256;28;20265;-51
2021/03/07 10:33:26;;;;;;;27.77;11.25;;;;;;;;;;5033044;28;20179;-51
2021/03/07 10:36:08;;;;;;;27.95;11.45;;;;;;;;;;5017765;28;20202;-50
2021/03/07 10:38:36;;;;;;;21.95;10.98;;;;;;;;;;5022217;28;20180;-50
2021/03/07 10:41:21;;;;;;;21.70;10.35;;;;;;;;;;5019610;28;20191;-50
2021/03/07 10:43:48;;;;;;;26.27;11.00;;;;;;;;;;5023100;28;20196;-50
2021/03/07 10:46:25;;;;;;;27.02;10.35;;;;;;;;;;5034283;28;20191;-50
2021/03/07 10:48:55;;;;;;;23.48;10.07;;;;;;;;;;5028705;28;20180;-50
2021/03/07 10:51:21;;;;;;;23.38;10.45;;;;;;;;;;5033150;28;20176;-50
2021/03/07 10:53:47;;;;;;;21.58;9.43;;;;;;;;;;5031905;28;20240;-50
2021/03/07 10:56:13;;;;;;;24.13;9.20;;;;;;;;;;5025972;28;20791;-50
2021/03/07 10:58:40;;;;;;;18.95;9.13;;;;;;;;;;5025014;28;20470;-50
2021/03/07 11:01:06;;;;;;;18.83;8.98;;;;;;;;;;5032777;28;20202;-49
2021/03/07 11:03:32;;;;;;;20.17;8.23;;;;;;;;;;5034357;28;20227;-50
2021/03/07 11:05:58;;;;;;;21.20;9.23;;;;;;;;;;5034228;28;20822;-50
2021/03/07 11:08:24;;;;;;;20.15;8.75;;;;;;;;;;5030929;28;20581;-49
2021/03/07 11:10:50;;;;;;;19.65;8.52;;;;;;;;;;5035563;28;20437;-51
2021/03/07 11:13:16;;;;;;;22.95;9.30;;;;;;;;;;5026726;28;20196;-50
2021/03/07 11:15:42;;;;;;;17.65;9.32;;;;;;;;;;5016350;28;20215;-50
2021/03/07 11:18:08;;;;;;;22.00;9.27;;;;;;;;;;5017540;28;20184;-50
2021/03/07 11:20:34;;;;;;;17.20;8.43;;;;;;;;;;5023624;28;20177;-50
2021/03/07 11:23:00;;;;;;;20.40;9.45;;;;;;;;;;5034581;28;20192;-50
2021/03/07 11:25:26;;;;;;;17.23;9.02;;;;;;;;;;5028965;28;20192;-49
2021/03/07 11:27:52;;;;;;;19.00;8.80;;;;;;;;;;5026351;28;20187;-50
2021/03/07 11:30:19;;;;;;;17.83;8.45;;;;;;;;;;5021568;28;20187;-51
2021/03/07 11:32:45;;;;;;;21.05;8.52;;;;;;;;;;5015463;28;20431;-50
2021/03/07 11:35:11;;;;;;;16.98;8.07;;;;;;;;;;5020598;28;20730;-50
2021/03/07 11:37:37;;;;;;;19.55;8.43;;;;;;;;;;5017256;28;20196;-50
2021/03/07 11:40:04;;;;;;;13.80;7.50;;;;;;;;;;5026026;28;20207;-50
2021/03/07 11:42:30;;;;;;;13.80;8.18;;;;;;;;;;5020993;28;20196;-50
2021/03/07 11:44:56;;;;;;;18.42;7.97;;;;;;;;;;5020401;28;20242;-50
2021/03/07 11:47:22;;;;;;;16.02;7.38;;;;;;;;;;5015985;28;20215;-50
2021/03/07 11:49:48;;;;;;;20.42;8.45;;;;;;;;;;5014148;28;20465;-50
2021/03/07 11:52:14;;;;;;;15.85;7.03;;;;;;;;;;5027521;28;20200;-50
2021/03/07 11:54:40;;;;;;;15.50;7.32;;;;;;;;;;5028120;28;20203;-50
2021/03/07 11:57:06;;;;;;;16.02;6.90;;;;;;;;;;5024674;28;20246;-50
2021/03/07 11:59:33;;;;;;;13.75;6.55;;;;;;;;;;5027330;28;20204;-50
2021/03/07 12:01:59;;;;;;;13.55;6.38;;;;;;;;;;5032351;28;20199;-50
2021/03/07 12:04:25;;;;;;;12.55;6.38;;;;;;;;;;5032560;28;20184;-50
2021/03/07 12:06:51;;;;;;;12.10;6.30;;;;;;;;;;5028344;28;20186;-50
2021/03/07 12:09:17;;;;;;;13.57;6.25;;;;;;;;;;5033679;28;20188;-50
2021/03/07 12:11:44;;;;;;;14.93;5.95;;;;;;;;;;5033512;28;20511;-50
2021/03/07 12:14:10;;;;;;;8.70;5.32;;;;;;;;;;5017349;28;20199;-50
2021/03/07 12:16:36;;;;;;;10.73;5.22;;;;;;;;;;5029934;28;20210;-50
2021/03/07 12:19:03;;;;;;;11.88;5.70;;;;;;;;;;5014736;28;20235;-50
2021/03/07 12:21:29;;;;;;;11.00;5.47;;;;;;;;;;5014184;28;20222;-50
2021/03/07 12:23:55;;;;;;;9.40;4.97;;;;;;;;;;5022587;28;20237;-50
2021/03/07 12:26:21;;;;;;;14.52;5.88;;;;;;;;;;5022523;28;20515;-50
2021/03/07 12:28:47;;;;;;;11.40;5.47;;;;;;;;;;5017655;28;20188;-50
2021/03/07 12:31:14;;;;;;;11.95;5.50;;;;;;;;;;5022070;28;20466;-50
2021/03/07 12:33:40;;;;;;;12.27;5.05;;;;;;;;;;5014389;28;20244;-50
2021/03/07 12:36:06;;;;;;;11.15;4.85;;;;;;;;;;5020335;28;20227;-50
2021/03/07 12:38:32;;;;;;;9.52;4.68;;;;;;;;;;5016763;28;20238;-50
2021/03/07 12:40:58;;;;;;;9.35;4.68;;;;;;;;;;5014228;28;20176;-50
2021/03/07 12:43:24;;;;;;;9.73;4.95;;;;;;;;;;5019480;28;20176;-50
2021/03/07 12:45:50;;;;;;;8.07;4.55;;;;;;;;;;5033403;28;20665;-50
2021/03/07 12:48:16;;;;;;;8.45;4.60;;;;;;;;;;5019597;28;20279;-50
2021/03/07 12:50:42;;;;;;;11.18;4.57;;;;;;;;;;5013358;28;20202;-50
2021/03/07 12:53:08;;;;;;;7.78;4.60;;;;;;;;;;5033033;28;20188;-50
2021/03/07 12:55:34;;;;;;;7.28;4.35;;;;;;;;;;5031225;28;20604;-50
2021/03/07 12:58:00;;;;;;;9.32;4.00;;;;;;;;;;5026631;28;20176;-50
2021/03/07 13:00:27;;;;;;;7.22;3.70;;;;;;;;;;5023132;28;20176;-50
2021/03/07 13:02:53;;;;;;;7.97;4.10;;;;;;;;;;5014265;28;20181;-50
2021/03/07 13:05:19;;;;;;;6.28;3.67;;;;;;;;;;5031228;28;20686;-50
2021/03/07 13:07:46;;;;;;;9.73;4.00;;;;;;;;;;5031852;28;20172;-50
2021/03/07 13:10:14;;;;;;;7.00;3.70;;;;;;;;;;5023550;28;20172;-50
2021/03/07 13:12:40;;;;;;;9.85;4.00;;;;;;;;;;5018046;28;20206;-50
2021/03/07 13:15:06;;;;;;;7.82;3.70;;;;;;;;;;5022287;28;20292;-50
2021/03/07 13:17:32;;;;;;;6.82;3.75;;;;;;;;;;5026694;28;20203;-50
2021/03/07 13:19:58;;;;;;;7.18;3.83;;;;;;;;;;5033266;28;20202;-50
2021/03/07 13:22:24;;;;;;;6.43;3.65;;;;;;;;;;5030632;28;20918;-50
2021/03/07 13:24:50;;;;;;;8.02;3.95;;;;;;;;;;5025478;28;20187;-50
2021/03/07 13:27:16;;;;;;;7.57;4.55;;;;;;;;;;5016325;28;20191;-50
2021/03/07 13:29:42;;;;;;;6.03;3.90;;;;;;;;;;5018398;28;20263;-50
2021/03/07 13:32:08;;;;;;;5.72;3.55;;;;;;;;;;5032838;28;20266;-50
2021/03/07 13:34:34;;;;;;;6.95;3.90;;;;;;;;;;5026019;28;20447;-50
2021/03/07 13:37:00;;;;;;;10.80;4.30;;;;;;;;;;5020731;28;20620;-50
2021/03/07 13:39:26;;;;;;;8.43;4.05;;;;;;;;;;5023840;28;20245;-50
2021/03/07 13:41:52;;;;;;;6.85;3.88;;;;;;;;;;5033130;28;20631;-50
2021/03/07 13:44:18;;;;;;;5.47;3.42;;;;;;;;;;5019793;28;20195;-50
2021/03/07 13:46:44;;;;;;;7.97;3.65;;;;;;;;;;5032812;28;20212;-50
2021/03/07 13:49:10;;;;;;;8.65;3.85;;;;;;;;;;5031892;28;20188;-50
2021/03/07 13:51:36;;;;;;;6.97;3.80;;;;;;;;;;5013104;28;20203;-50
2021/03/07 13:54:02;;;;;;;8.15;3.80;;;;;;;;;;5017299;28;20195;-50
2021/03/07 13:56:28;;;;;;;9.23;3.97;;;;;;;;;;5014012;28;20639;-50
2021/03/07 13:58:55;;;;;;;5.78;3.47;;;;;;;;;;5015967;28;20234;-50
2021/03/07 14:01:21;;;;;;;6.75;3.63;;;;;;;;;;5012983;28;20227;-50
2021/03/07 14:03:47;;;;;;;8.27;3.55;;;;;;;;;;5022585;28;20231;-50
2021/03/07 14:06:13;;;;;;;9.02;3.72;;;;;;;;;;5035593;28;20241;-50
2021/03/07 14:08:39;;;;;;;7.05;3.38;;;;;;;;;;5027413;28;20444;-50
2021/03/07 14:11:05;;;;;;;6.70;3.58;;;;;;;;;;5016358;28;20226;-50
2021/03/07 14:13:31;;;;;;;7.93;3.90;;;;;;;;;;5029937;28;20192;-50
2021/03/07 14:15:57;;;;;;;7.15;3.80;;;;;;;;;;5035142;28;20245;-50
2021/03/07 14:18:23;;;;;;;5.30;3.20;;;;;;;;;;5033795;28;20187;-50
2021/03/07 14:20:49;;;;;;;5.07;3.40;;;;;;;;;;5019812;28;20243;-50
2021/03/07 14:23:15;;;;;;;4.85;3.50;;;;;;;;;;5026224;28;20184;-50
2021/03/07 14:25:41;;;;;;;5.97;3.50;;;;;;;;;;5035278;28;20332;-50
2021/03/07 14:28:09;;;;;;;10.32;3.92;;;;;;;;;;5032801;28;20187;-50
2021/03/07 14:30:35;;;;;;;5.97;3.40;;;;;;;;;;5035865;28;20199;-50
2021/03/07 14:33:01;;;;;;;6.90;3.25;;;;;;;;;;5036277;28;20188;-50
2021/03/07 14:35:27;;;;;;;8.63;3.58;;;;;;;;;;5016052;28;20195;-50
2021/03/07 14:37:53;;;;;;;5.38;3.17;;;;;;;;;;5018165;28;20191;-50
2021/03/07 14:40:20;;;;;;;5.93;3.20;;;;;;;;;;5034250;28;20188;-50